Muskoka Airport
CYQA : now visible

Airfield :











YOU CAN JOIN US ON...

 
LOGIN :

Register | Disclaimer

   EN    FR    IT 

 









Legend :    VFR   Marginal VFR   IFR   Intensive IFR   Very Intensive IFR
Visi :
Ceiling :
>= 8 km
>= 3000ft
5 to 8 km
1000 to 3000 ft
1500m to 5 km
500 to 1000 ft
800 to 1500m
200 to 500 ft
< 800m
< 200 ft
Symbols :   Thunderstorms  Fog  Heavy snow  Heavy precipitations  Wind > 20 kt






- Airport Elevation : 925 ft
- IATA code : YQA


CYQA - Muskoka

CURRENT METAR :
  • 071600Z AUTO 30007KT 180V320 9SM CLR 11/M03 A2992 RMK SLP143

EXPIRED METARs :
  • 071500Z AUTO 33006KT 260V040 9SM CLR 09/M01 A2994 RMK SLP149
  • 071400Z AUTO 32004KT 260V070 9SM CLR 08/01 A2996 RMK SLP153

TAF TAF CYQA
Valid from the 07 at 14:00 until the 08 at 02:00 UTC


071338Z 0714/0802 VRB03KT P6SM SKC
FM072300 VRB03KT P6SM BKN070 RMK CLD HGT SENSOR INOP. FCST BASED ON AUTO OBS. NXT FCST BY 071400Z RMK FCST BASED ON AUTO OBS. NXT FCST BY 072000Z
CZYZ FIR / North America



MET'MAP, your aeronautical weather chart ! - Copyright ORBIFLY December 2007 - Disclaimer

ORBIFLY MET'MAP TEAM :

Programming & Development : Alexandra Zaïnal
Concept & original design : Baudouin d'Aumeries
Assistance for programming : Marc-Olivier Méhu
Technical & hardware support : Manuel Goepfert

Contact : metmap@orbifly.com




SOURCES & CREDITS :

   NOAA       Earth
Advisory